Time;durP1;ratioP1;P1;durP2;ratioP2;P2;SDS_P1;SDS_P2;PMS_P1;PMS_P2;Temp;Humidity;BMP_temperature;BMP_pressure;BME280_temperature;BME280_humidity;BME280_pressure;Samples;Min_cycle;Max_cycle;Signal;HPM_P1;HPM_P2
2021/01/06 00:02:06;;;;;;;14.5;10;;;;;;;0.34;87.58594;98276.2;;;;
2021/01/06 00:12:04;;;;;;;20.6;12.2;;;;;;;0.44;87.23242;98288.75;;;;
2021/01/06 00:22:02;;;;;;;19.7;12.4;;;;;;;0.48;87.05469;98288.02;;;;
2021/01/06 00:31:59;;;;;;;20.6;13.3;;;;;;;0.47;86.50391;98277.64;;;;
2021/01/06 00:41:57;;;;;;;14.2;10.9;;;;;;;0.47;85.96582;98272.34;;;;
2021/01/06 00:51:56;;;;;;;14.4;10.1;;;;;;;0.47;86.36133;98296.2;;;;
2021/01/06 01:01:56;;;;;;;12.6;9.1;;;;;;;0.52;86.41406;98306.88;;;;
2021/01/06 01:11:51;;;;;;;17;11.6;;;;;;;0.54;86.23242;98302.11;;;;
2021/01/06 01:21:49;;;;;;;14.5;9.6;;;;;;;0.6;86.33105;98298.45;;;;
2021/01/06 01:31:47;;;;;;;14.7;10.9;;;;;;;0.49;86.0459;98309.99;;;;
2021/01/06 01:41:44;;;;;;;20.2;13.2;;;;;;;0.42;85.87793;98320.8;;;;
2021/01/06 01:51:42;;;;;;;12.9;9.1;;;;;;;0.55;85.83691;98302.91;;;;
2021/01/06 02:01:40;;;;;;;17.9;11.3;;;;;;;0.5;85.86133;98303.66;;;;
2021/01/06 02:11:38;;;;;;;16.1;10;;;;;;;0.49;86.22168;98309.99;;;;
2021/01/06 02:21:35;;;;;;;14.1;11.3;;;;;;;0.61;85.88281;98300.06;;;;
2021/01/06 02:31:33;;;;;;;15.8;10.1;;;;;;;0.51;86.10449;98297.31;;;;
2021/01/06 02:41:31;;;;;;;14.5;9.8;;;;;;;0.54;86.36426;98299.45;;;;
2021/01/06 02:51:29;;;;;;;13.7;8.7;;;;;;;0.59;85.98926;98296.84;;;;
2021/01/06 03:01:27;;;;;;;15.8;10.4;;;;;;;0.67;85.67285;98303.55;;;;
2021/01/06 03:11:25;;;;;;;20.3;11.9;;;;;;;0.64;85.15137;98293.45;;;;
2021/01/06 03:21:22;;;;;;;19.5;11.9;;;;;;;0.5;86.20117;98288.55;;;;
2021/01/06 03:31:20;;;;;;;16.4;12.1;;;;;;;0.64;85.58008;98288.14;;;;
2021/01/06 03:41:18;;;;;;;11.6;9;;;;;;;0.56;86.07129;98281.44;;;;
2021/01/06 03:51:16;;;;;;;16.4;10.8;;;;;;;0.61;86.13574;98278.84;;;;
2021/01/06 04:01:14;;;;;;;19;11.8;;;;;;;0.54;86.17773;98275.59;;;;
2021/01/06 04:11:12;;;;;;;19.1;14;;;;;;;0.38;86.93652;98271.98;;;;
2021/01/06 04:21:10;;;;;;;20.6;14.2;;;;;;;0.43;86.89063;98263.28;;;;
2021/01/06 04:31:07;;;;;;;19.3;12.4;;;;;;;0.44;86.39941;98273.65;;;;
2021/01/06 04:41:05;;;;;;;14.4;10.7;;;;;;;0.41;86.40527;98263.55;;;;
2021/01/06 04:51:12;;;;;;;20.3;13.3;;;;;;;0.25;86.45898;98261.77;;;;
2021/01/06 05:01:07;;;;;;;20.5;12.7;;;;;;;-0.07;86.36035;98263.54;;;;
2021/01/06 05:11:03;;;;;;;15.2;10.6;;;;;;;-0.34;86.45801;98283.82;;;;
2021/01/06 05:20:57;;;;;;;19.3;10.6;;;;;;;-0.43;86.65039;98272.87;;;;
2021/01/06 05:30:58;;;;;;;16.3;11.5;;;;;;;-0.55;87.77539;98256.28;;;;
2021/01/06 05:40:52;;;;;;;15.5;13.3;;;;;;;-0.77;87.74219;98271.32;;;;
2021/01/06 05:50:50;;;;;;;17.8;11.9;;;;;;;-1.01;87.81543;98274.12;;;;
2021/01/06 06:00:47;;;;;;;21.7;12.1;;;;;;;-1.23;88.16113;98275.08;;;;
2021/01/06 06:10:45;;;;;;;19.5;12.1;;;;;;;-1.46;87.91602;98277.86;;;;
2021/01/06 06:20:42;;;;;;;17.5;11.3;;;;;;;-1.67;89.1084;98263.48;;;;
2021/01/06 06:30:40;;;;;;;21.8;11.5;;;;;;;-1.79;89.65137;98286.49;;;;
2021/01/06 06:40:37;;;;;;;19.3;12.8;;;;;;;-1.88;89.75098;98282.63;;;;
2021/01/06 06:50:35;;;;;;;24.3;14.7;;;;;;;-1.93;90.48242;98271.95;;;;
2021/01/06 07:00:32;;;;;;;23.1;15.1;;;;;;;-1.97;91.20508;98276.91;;;;
2021/01/06 07:10:30;;;;;;;25;14.5;;;;;;;-1.92;91.64258;98263.01;;;;
2021/01/06 07:20:27;;;;;;;24.8;17.4;;;;;;;-1.85;91.4834;98276.88;;;;
2021/01/06 07:30:25;;;;;;;23.3;15.8;;;;;;;-1.71;91.69922;98283.48;;;;
2021/01/06 07:40:22;;;;;;;20.2;16.6;;;;;;;-1.38;91.91211;98291.48;;;;
2021/01/06 07:50:20;;;;;;;25;17.1;;;;;;;-0.99;91.62207;98286.31;;;;
2021/01/06 08:00:17;;;;;;;29.4;20.3;;;;;;;-0.66;90.77539;98281.02;;;;
2021/01/06 08:10:15;;;;;;;28.4;18;;;;;;;-0.48;89.96094;98270.14;;;;
2021/01/06 08:20:13;;;;;;;28.9;20.6;;;;;;;-0.43;89.43359;98254.34;;;;
2021/01/06 08:30:11;;;;;;;26.8;17.4;;;;;;;-0.29;88.33301;98270.66;;;;
2021/01/06 08:40:08;;;;;;;26.3;19.6;;;;;;;-0.02;87.79785;98269.69;;;;
2021/01/06 08:50:06;;;;;;;24.6;17;;;;;;;0.2;88.5332;98276.83;;;;
2021/01/06 09:00:04;;;;;;;26.4;19.8;;;;;;;0.64;88.19531;98248.38;;;;
2021/01/06 09:10:05;;;;;;;26.3;18.9;;;;;;;1.01;87.06543;98263.27;;;;
2021/01/06 09:20:03;;;;;;;22.2;19.6;;;;;;;1.19;85.17188;98263.94;;;;
2021/01/06 09:29:58;;;;;;;29.2;22.6;;;;;;;1.21;85.28711;98237.95;;;;
2021/01/06 09:40:03;;;;;;;29.5;23.2;;;;;;;1.39;85.83984;98229.55;;;;
2021/01/06 09:49:59;;;;;;;32.2;26.6;;;;;;;1.27;85.2998;98223.66;;;;
2021/01/06 09:59:52;;;;;;;34.5;25.1;;;;;;;1.19;86.26367;98206.34;;;;
2021/01/06 10:09:50;;;;;;;35;30.5;;;;;;;1.3;86.0752;98191.28;;;;
2021/01/06 10:19:48;;;;;;;47.3;34.4;;;;;;;1.68;85.73438;98153.75;;;;
2021/01/06 10:29:46;;;;;;;42;35.8;;;;;;;1.48;85.47266;98145.72;;;;
2021/01/06 10:39:44;;;;;;;47.2;34.8;;;;;;;1.77;85.10156;98138.13;;;;
2021/01/06 10:49:42;;;;;;;41.5;34.3;;;;;;;2.24;83.44922;98116.67;;;;
2021/01/06 10:59:40;;;;;;;40.6;36;;;;;;;2.62;82.57324;98104.7;;;;
2021/01/06 11:09:38;;;;;;;45.9;36.4;;;;;;;2.31;83.00977;98091.42;;;;
2021/01/06 11:19:36;;;;;;;84.7;65;;;;;;;2.3;82.67676;98051.8;;;;
2021/01/06 11:29:34;;;;;;;42.8;37.4;;;;;;;2.55;82.78027;98057.09;;;;
2021/01/06 11:39:32;;;;;;;36.1;29.9;;;;;;;2.53;82.9541;98069.88;;;;
2021/01/06 11:49:30;;;;;;;44.5;32.7;;;;;;;2.69;82.70703;98041.38;;;;
2021/01/06 11:59:28;;;;;;;42.3;32.6;;;;;;;2.69;82.65137;98036.05;;;;
2021/01/06 12:09:27;;;;;;;40.7;32;;;;;;;2.54;82.40332;98020.91;;;;
2021/01/06 12:19:25;;;;;;;34.8;31.2;;;;;;;2.6;83.14453;98011.88;;;;
2021/01/06 12:29:23;;;;;;;41.4;28.9;;;;;;;2.64;82.66699;98004.92;;;;
2021/01/06 12:39:25;;;;;;;39.3;30.1;;;;;;;2.63;82.8291;98006.02;;;;
2021/01/06 12:49:21;;;;;;;54.2;41.7;;;;;;;2.76;82.44531;98000.12;;;;
2021/01/06 12:59:17;;;;;;;65.8;46.7;;;;;;;2.71;82.79883;98002.01;;;;
2021/01/06 13:09:16;;;;;;;35.8;32;;;;;;;2.69;82.92773;97996.14;;;;
2021/01/06 13:19:29;;;;;;;57.9;37;;;;;;;2.59;83.90527;98002.3;;;;
2021/01/06 13:29:12;;;;;;;37.9;30.8;;;;;;;2.72;83.3877;98003.58;;;;
2021/01/06 13:39:11;;;;;;;47.6;40.7;;;;;;;2.7;84.08105;98003.06;;;;
2021/01/06 13:49:10;;;;;;;46.1;41.2;;;;;;;2.52;85.65918;97996.45;;;;
2021/01/06 13:59:07;;;;;;;61.6;45.2;;;;;;;2.44;85.21191;98013.76;;;;
2021/01/06 14:09:26;;;;;;;61.1;46.6;;;;;;;2.12;86.27539;98021.23;;;;
2021/01/06 14:19:34;;;;;;;56.7;42.6;;;;;;;1.96;86.38672;98015.13;;;;
2021/01/06 14:29:11;;;;;;;59.4;44.3;;;;;;;1.64;86.87109;98037.66;;;;
2021/01/06 14:39:03;;;;;;;59.3;45;;;;;;;1.55;87.29395;98042.71;;;;
2021/01/06 14:49:07;;;;;;;72.6;46.6;;;;;;;1.48;87.56738;98035;;;;
2021/01/06 14:59:27;;;;;;;59.4;44.5;;;;;;;1.55;87.40332;98031.29;;;;
2021/01/06 15:08:53;;;;;;;51;36.9;;;;;;;1.57;87.37402;98021.19;;;;
2021/01/06 15:18:50;;;;;;;64.4;49.7;;;;;;;1.4;88.24219;98021.42;;;;
2021/01/06 15:28:48;;;;;;;49.8;44.6;;;;;;;1.44;87.86621;98011.88;;;;
2021/01/06 15:38:46;;;;;;;66.1;51.3;;;;;;;1.48;87.74316;98000.48;;;;
2021/01/06 15:48:44;;;;;;;92;64.2;;;;;;;1.39;88.47168;97985.31;;;;
2021/01/06 15:58:42;;;;;;;86.3;67.7;;;;;;;1.26;88.15918;98001.74;;;;
2021/01/06 16:08:40;;;;;;;65.3;51;;;;;;;1.19;87.9668;98006.5;;;;
2021/01/06 16:18:38;;;;;;;50.7;42.2;;;;;;;1.23;87.85742;98019;;;;
2021/01/06 16:28:36;;;;;;;57.7;38.1;;;;;;;1.14;88.14453;98014.46;;;;
2021/01/06 16:38:34;;;;;;;51.4;37.1;;;;;;;1.14;88.01465;98015.27;;;;
2021/01/06 16:48:32;;;;;;;50.4;36.4;;;;;;;1.01;87.47168;98011.22;;;;
2021/01/06 16:58:30;;;;;;;48.4;36.2;;;;;;;0.71;87.84766;98016.4;;;;
2021/01/06 17:08:27;;;;;;;60.8;46.2;;;;;;;0.46;88.27051;98019.7;;;;
2021/01/06 17:18:25;;;;;;;57.7;43.7;;;;;;;0.35;87.40137;98031.29;;;;
2021/01/06 17:28:23;;;;;;;67.3;53.4;;;;;;;0.13;86.91602;98025.32;;;;
2021/01/06 17:38:22;;;;;;;47.5;39.4;;;;;;;-0.17;86.91113;98025.86;;;;
2021/01/06 17:48:18;;;;;;;68.7;51.3;;;;;;;-0.29;87.43457;98030.53;;;;
2021/01/06 17:58:16;;;;;;;62.2;43.1;;;;;;;-0.13;87.75391;98037.55;;;;
2021/01/06 18:08:14;;;;;;;60.1;45.6;;;;;;;0.02;88.08105;98042.19;;;;
2021/01/06 18:18:12;;;;;;;77.1;53.4;;;;;;;0.04;89.31152;98041.91;;;;
2021/01/06 18:28:09;;;;;;;63.9;45.5;;;;;;;0.04;89.60938;98040.07;;;;
2021/01/06 18:38:07;;;;;;;56.2;44.4;;;;;;;0.26;88.85352;98034.67;;;;
2021/01/06 18:48:05;;;;;;;51.5;37.5;;;;;;;0.44;88.46289;98039.58;;;;
2021/01/06 18:58:03;;;;;;;72;53.6;;;;;;;0.44;88.74805;98047.53;;;;
2021/01/06 19:08:00;;;;;;;118.6;86.2;;;;;;;0.57;88.47949;98049.73;;;;
2021/01/06 19:17:59;;;;;;;101.8;73.3;;;;;;;0.42;89.05176;98066.33;;;;
2021/01/06 19:28:00;;;;;;;78.9;62.7;;;;;;;0.52;88.79785;98078.07;;;;
2021/01/06 19:37:54;;;;;;;57.3;50.4;;;;;;;0.58;88.67871;98080.5;;;;
2021/01/06 19:47:51;;;;;;;51.7;44.3;;;;;;;0.49;89.67285;98056.3;;;;
2021/01/06 19:57:49;;;;;;;67.3;50.4;;;;;;;0.62;89.61035;98049.77;;;;
2021/01/06 20:07:47;;;;;;;63.9;54.1;;;;;;;0.6;88.9248;98069.63;;;;
2021/01/06 20:17:45;;;;;;;72;49.7;;;;;;;0.43;89.29492;98064.48;;;;
2021/01/06 20:27:48;;;;;;;70.7;53.5;;;;;;;0.43;89.13281;98049.38;;;;
2021/01/06 20:37:40;;;;;;;83.8;65.5;;;;;;;0.42;88.85449;98046.97;;;;
2021/01/06 20:47:38;;;;;;;56.9;43.5;;;;;;;0.57;88.8418;98052.38;;;;
2021/01/06 20:57:36;;;;;;;76.2;49.5;;;;;;;0.52;88.57813;98062.97;;;;
2021/01/06 21:07:34;;;;;;;75.7;51.6;;;;;;;0.54;89.00098;98039.64;;;;
2021/01/06 21:17:32;;;;;;;62.2;50.3;;;;;;;0.44;89.56055;98034.27;;;;
2021/01/06 21:27:29;;;;;;;69.7;57.4;;;;;;;0.49;89.23145;98036.94;;;;
2021/01/06 21:37:27;;;;;;;74.4;59.7;;;;;;;0.42;88.64551;98020.46;;;;
2021/01/06 21:47:25;;;;;;;83.8;62.7;;;;;;;0.31;88.71094;98026.78;;;;
2021/01/06 21:57:23;;;;;;;82.5;69.8;;;;;;;0.3;88.16992;98027.82;;;;
2021/01/06 22:07:21;;;;;;;87.7;61.2;;;;;;;0.18;88.58496;98032.48;;;;
2021/01/06 22:17:18;;;;;;;79.9;63;;;;;;;0.27;88.1748;98033.63;;;;
2021/01/06 22:27:16;;;;;;;92.8;72.4;;;;;;;0.31;88.77734;98034.73;;;;
2021/01/06 22:37:14;;;;;;;81.9;63.4;;;;;;;0.21;89.46777;98029.36;;;;
2021/01/06 22:47:12;;;;;;;87.9;70.9;;;;;;;0.26;89.52344;98042.63;;;;
2021/01/06 22:57:10;;;;;;;89.7;70.6;;;;;;;0.32;88.97461;98038.95;;;;
2021/01/06 23:07:07;;;;;;;107.7;75.9;;;;;;;0.27;89.17383;98038.94;;;;
2021/01/06 23:17:05;;;;;;;85.1;68.2;;;;;;;0.35;88.60938;98027.84;;;;
2021/01/06 23:27:03;;;;;;;93.4;68.2;;;;;;;0.39;88.58496;98013.83;;;;
2021/01/06 23:37:01;;;;;;;71.7;61.9;;;;;;;0.39;88.14648;98015.67;;;;
2021/01/06 23:46:59;;;;;;;93.2;71.4;;;;;;;0.21;89.06152;97986.97;;;;
2021/01/06 23:56:58;;;;;;;90.6;69.1;;;;;;;0.25;88.50098;98003.92;;;;
